Main page
METAR-TAF:

METAR-TAF

Airports :

Glasgow Prestwick Airport

Glasgow-Prestwick, Scotland

latitude: 55-30N, longitude: 004-35W, elevation: 20 m

Current weather observation

The report was made 37 minutes ago, at 21:50 UTC
Wind 4 kt from the East/Northeast
Temperature 6°C
Humidity 75%
Pressure 1030 hPa
Visibility 10 km or more
Few clouds at a height of 2500 ft

METAR: EGPK 172150Z 07004KT 9999 FEW025 06/02 Q1030

Time: 22:27 (22:27 UTC)

Forecast

The report was made 5 hours and 29 minutes ago, at 16:58 UTC
Forecast valid from 17 at 18 UTC to 18 at 18 UTC
Wind 7 kt from the Northeast
Visibility 10 km or more
Few clouds at a height of 2000 ft

TAF: EGPK 171658Z 1718/1818 04007KT 9999 FEW020

Weather observations and forecasts of more than 4000 airports (METAR and TAF reports).

The available stations are represented by yellow and red dots on the map.

Hover mouse over dot to see the name of the station.

Then click to see weather observations and forecasts.

To change the map : click on the green buttons with a black cross to zoom in, on the green button with a dash to zoom out, or on the green arrows for adjacent maps.


METAR-TAF: